sensor_id;sensor_type;location;lat;lon;timestamp;P1;durP1;ratioP1;P2;durP2;ratioP2
48243;SDS011;34053;51.088;6.572;2022-08-19T00:01:53;4.72;;;1.90;;
48243;SDS011;34053;51.088;6.572;2022-08-19T00:04:30;17.27;;;2.13;;
48243;SDS011;34053;51.088;6.572;2022-08-19T00:07:03;2.65;;;1.83;;
48243;SDS011;34053;51.088;6.572;2022-08-19T00:09:38;0.82;;;0.77;;
48243;SDS011;34053;51.088;6.572;2022-08-19T00:12:09;0.45;;;0.45;;
48243;SDS011;34053;51.088;6.572;2022-08-19T00:14:44;1.25;;;1.13;;
48243;SDS011;34053;51.088;6.572;2022-08-19T00:17:14;0.60;;;0.60;;
48243;SDS011;34053;51.088;6.572;2022-08-19T00:19:45;0.60;;;0.60;;
48243;SDS011;34053;51.088;6.572;2022-08-19T00:22:16;1.00;;;0.93;;
48243;SDS011;34053;51.088;6.572;2022-08-19T00:24:48;0.57;;;0.57;;
48243;SDS011;34053;51.088;6.572;2022-08-19T00:27:18;2.03;;;1.85;;
48243;SDS011;34053;51.088;6.572;2022-08-19T00:29:59;3.35;;;1.58;;
48243;SDS011;34053;51.088;6.572;2022-08-19T00:32:30;1.60;;;1.50;;
48243;SDS011;34053;51.088;6.572;2022-08-19T00:35:01;1.50;;;1.40;;
48243;SDS011;34053;51.088;6.572;2022-08-19T00:40:05;1.50;;;0.80;;
48243;SDS011;34053;51.088;6.572;2022-08-19T00:42:39;0.52;;;0.52;;
48243;SDS011;34053;51.088;6.572;2022-08-19T00:45:14;1.02;;;0.95;;
48243;SDS011;34053;51.088;6.572;2022-08-19T00:47:50;0.80;;;0.80;;
48243;SDS011;34053;51.088;6.572;2022-08-19T00:50:21;1.48;;;1.38;;
48243;SDS011;34053;51.088;6.572;2022-08-19T00:52:52;1.30;;;1.20;;
48243;SDS011;34053;51.088;6.572;2022-08-19T00:55:24;0.88;;;0.88;;
48243;SDS011;34053;51.088;6.572;2022-08-19T00:58:04;1.20;;;1.10;;
48243;SDS011;34053;51.088;6.572;2022-08-19T01:00:42;0.73;;;0.52;;
48243;SDS011;34053;51.088;6.572;2022-08-19T01:03:16;0.88;;;0.88;;
48243;SDS011;34053;51.088;6.572;2022-08-19T01:05:49;1.55;;;1.45;;
48243;SDS011;34053;51.088;6.572;2022-08-19T01:08:22;1.60;;;1.50;;
48243;SDS011;34053;51.088;6.572;2022-08-19T01:10:54;1.05;;;1.02;;
48243;SDS011;34053;51.088;6.572;2022-08-19T01:13:29;1.95;;;1.80;;
48243;SDS011;34053;51.088;6.572;2022-08-19T01:16:11;1.20;;;1.10;;
48243;SDS011;34053;51.088;6.572;2022-08-19T01:18:44;4.82;;;1.75;;
48243;SDS011;34053;51.088;6.572;2022-08-19T01:21:20;0.75;;;0.75;;
48243;SDS011;34053;51.088;6.572;2022-08-19T01:23:58;2.05;;;1.85;;
48243;SDS011;34053;51.088;6.572;2022-08-19T01:26:29;1.27;;;1.17;;
48243;SDS011;34053;51.088;6.572;2022-08-19T01:29:02;1.73;;;1.63;;
48243;SDS011;34053;51.088;6.572;2022-08-19T01:31:33;1.40;;;1.13;;
48243;SDS011;34053;51.088;6.572;2022-08-19T01:34:04;5.88;;;1.65;;
48243;SDS011;34053;51.088;6.572;2022-08-19T01:36:41;2.03;;;0.65;;
48243;SDS011;34053;51.088;6.572;2022-08-19T01:39:17;0.90;;;0.90;;
48243;SDS011;34053;51.088;6.572;2022-08-19T01:41:50;1.25;;;1.02;;
48243;SDS011;34053;51.088;6.572;2022-08-19T01:44:25;2.25;;;1.38;;
48243;SDS011;34053;51.088;6.572;2022-08-19T01:46:55;2.05;;;1.23;;
48243;SDS011;34053;51.088;6.572;2022-08-19T01:49:26;4.72;;;2.10;;
48243;SDS011;34053;51.088;6.572;2022-08-19T01:51:58;3.83;;;2.17;;
48243;SDS011;34053;51.088;6.572;2022-08-19T01:54:33;1.33;;;1.25;;
48243;SDS011;34053;51.088;6.572;2022-08-19T01:57:07;2.90;;;2.17;;
48243;SDS011;34053;51.088;6.572;2022-08-19T01:59:41;1.25;;;1.15;;
48243;SDS011;34053;51.088;6.572;2022-08-19T02:02:13;0.63;;;0.63;;
48243;SDS011;34053;51.088;6.572;2022-08-19T02:04:43;2.17;;;1.15;;
48243;SDS011;34053;51.088;6.572;2022-08-19T02:07:18;1.25;;;0.77;;
48243;SDS011;34053;51.088;6.572;2022-08-19T02:09:51;2.45;;;2.05;;
48243;SDS011;34053;51.088;6.572;2022-08-19T02:12:21;0.45;;;0.45;;
48243;SDS011;34053;51.088;6.572;2022-08-19T02:14:52;2.05;;;1.52;;
48243;SDS011;34053;51.088;6.572;2022-08-19T02:17:23;1.48;;;1.38;;
48243;SDS011;34053;51.088;6.572;2022-08-19T02:19:53;1.75;;;1.65;;
48243;SDS011;34053;51.088;6.572;2022-08-19T02:22:24;3.50;;;1.90;;
48243;SDS011;34053;51.088;6.572;2022-08-19T02:24:58;1.15;;;1.05;;
48243;SDS011;34053;51.088;6.572;2022-08-19T02:27:28;5.25;;;3.28;;
48243;SDS011;34053;51.088;6.572;2022-08-19T02:29:59;1.60;;;1.50;;
48243;SDS011;34053;51.088;6.572;2022-08-19T02:32:32;1.30;;;1.20;;
48243;SDS011;34053;51.088;6.572;2022-08-19T02:35:03;9.20;;;3.50;;
48243;SDS011;34053;51.088;6.572;2022-08-19T02:37:34;4.85;;;1.73;;
48243;SDS011;34053;51.088;6.572;2022-08-19T02:40:24;2.42;;;1.05;;
48243;SDS011;34053;51.088;6.572;2022-08-19T02:42:54;2.25;;;2.05;;
48243;SDS011;34053;51.088;6.572;2022-08-19T02:45:26;12.70;;;1.77;;
48243;SDS011;34053;51.088;6.572;2022-08-19T02:47:57;3.28;;;1.55;;
48243;SDS011;34053;51.088;6.572;2022-08-19T02:50:30;2.83;;;1.77;;
48243;SDS011;34053;51.088;6.572;2022-08-19T02:53:01;3.13;;;2.40;;
48243;SDS011;34053;51.088;6.572;2022-08-19T02:55:31;1.75;;;1.50;;
48243;SDS011;34053;51.088;6.572;2022-08-19T02:58:02;1.75;;;1.65;;
48243;SDS011;34053;51.088;6.572;2022-08-19T03:00:40;10.77;;;1.73;;
48243;SDS011;34053;51.088;6.572;2022-08-19T03:05:50;1.63;;;1.52;;
48243;SDS011;34053;51.088;6.572;2022-08-19T03:08:23;3.10;;;2.25;;
48243;SDS011;34053;51.088;6.572;2022-08-19T03:10:59;5.60;;;2.97;;
48243;SDS011;34053;51.088;6.572;2022-08-19T03:13:32;3.10;;;1.83;;
48243;SDS011;34053;51.088;6.572;2022-08-19T03:16:04;9.20;;;2.15;;
48243;SDS011;34053;51.088;6.572;2022-08-19T03:18:39;2.47;;;2.00;;
48243;SDS011;34053;51.088;6.572;2022-08-19T03:21:15;3.33;;;2.40;;
48243;SDS011;34053;51.088;6.572;2022-08-19T03:23:57;3.65;;;2.88;;
48243;SDS011;34053;51.088;6.572;2022-08-19T03:26:29;3.40;;;3.05;;
48243;SDS011;34053;51.088;6.572;2022-08-19T03:29:04;6.72;;;3.97;;
48243;SDS011;34053;51.088;6.572;2022-08-19T03:31:35;4.18;;;3.33;;
48243;SDS011;34053;51.088;6.572;2022-08-19T03:34:10;3.75;;;2.17;;
48243;SDS011;34053;51.088;6.572;2022-08-19T03:36:42;3.58;;;2.55;;
48243;SDS011;34053;51.088;6.572;2022-08-19T03:39:13;2.67;;;2.30;;
48243;SDS011;34053;51.088;6.572;2022-08-19T03:41:44;3.33;;;2.38;;
48243;SDS011;34053;51.088;6.572;2022-08-19T03:44:19;3.60;;;3.28;;
48243;SDS011;34053;51.088;6.572;2022-08-19T03:46:52;3.38;;;3.08;;
48243;SDS011;34053;51.088;6.572;2022-08-19T03:49:26;3.10;;;2.53;;
48243;SDS011;34053;51.088;6.572;2022-08-19T03:51:59;5.55;;;3.67;;
48243;SDS011;34053;51.088;6.572;2022-08-19T03:54:32;4.88;;;4.38;;
48243;SDS011;34053;51.088;6.572;2022-08-19T03:57:03;2.50;;;2.38;;
48243;SDS011;34053;51.088;6.572;2022-08-19T03:59:35;3.42;;;2.72;;
48243;SDS011;34053;51.088;6.572;2022-08-19T04:02:09;1.80;;;1.67;;
48243;SDS011;34053;51.088;6.572;2022-08-19T04:04:42;2.60;;;2.40;;
48243;SDS011;34053;51.088;6.572;2022-08-19T04:07:14;3.90;;;3.53;;
48243;SDS011;34053;51.088;6.572;2022-08-19T04:09:46;3.92;;;3.53;;
48243;SDS011;34053;51.088;6.572;2022-08-19T04:12:16;4.70;;;2.78;;
48243;SDS011;34053;51.088;6.572;2022-08-19T04:14:47;4.85;;;2.22;;
48243;SDS011;34053;51.088;6.572;2022-08-19T04:17:18;4.22;;;2.55;;
48243;SDS011;34053;51.088;6.572;2022-08-19T04:19:48;3.80;;;2.20;;
48243;SDS011;34053;51.088;6.572;2022-08-19T04:22:19;3.67;;;2.92;;
48243;SDS011;34053;51.088;6.572;2022-08-19T04:24:50;2.63;;;1.73;;
48243;SDS011;34053;51.088;6.572;2022-08-19T04:27:20;3.22;;;2.30;;
48243;SDS011;34053;51.088;6.572;2022-08-19T04:29:54;4.32;;;2.88;;
48243;SDS011;34053;51.088;6.572;2022-08-19T04:32:25;5.38;;;3.03;;
48243;SDS011;34053;51.088;6.572;2022-08-19T04:34:58;4.85;;;3.28;;
48243;SDS011;34053;51.088;6.572;2022-08-19T04:37:29;4.25;;;3.85;;
48243;SDS011;34053;51.088;6.572;2022-08-19T04:40:05;2.17;;;1.98;;
48243;SDS011;34053;51.088;6.572;2022-08-19T04:42:58;4.03;;;3.78;;
48243;SDS011;34053;51.088;6.572;2022-08-19T04:45:28;4.35;;;3.95;;
48243;SDS011;34053;51.088;6.572;2022-08-19T04:47:59;4.22;;;2.75;;
48243;SDS011;34053;51.088;6.572;2022-08-19T04:50:32;2.30;;;2.13;;
48243;SDS011;34053;51.088;6.572;2022-08-19T04:53:03;3.15;;;2.20;;
48243;SDS011;34053;51.088;6.572;2022-08-19T04:55:41;3.83;;;2.97;;
48243;SDS011;34053;51.088;6.572;2022-08-19T04:58:15;5.85;;;4.30;;
48243;SDS011;34053;51.088;6.572;2022-08-19T05:00:46;2.65;;;2.40;;
48243;SDS011;34053;51.088;6.572;2022-08-19T05:03:17;2.33;;;2.13;;
48243;SDS011;34053;51.088;6.572;2022-08-19T05:05:48;4.38;;;3.63;;
48243;SDS011;34053;51.088;6.572;2022-08-19T05:08:19;6.45;;;2.75;;
48243;SDS011;34053;51.088;6.572;2022-08-19T05:13:22;4.65;;;3.95;;
48243;SDS011;34053;51.088;6.572;2022-08-19T05:15:54;2.40;;;2.13;;
48243;SDS011;34053;51.088;6.572;2022-08-19T05:18:29;4.07;;;3.75;;
48243;SDS011;34053;51.088;6.572;2022-08-19T05:21:18;2.22;;;2.03;;
48243;SDS011;34053;51.088;6.572;2022-08-19T05:24:11;4.57;;;2.83;;
48243;SDS011;34053;51.088;6.572;2022-08-19T05:26:45;9.52;;;3.03;;
48243;SDS011;34053;51.088;6.572;2022-08-19T05:29:19;3.38;;;2.13;;
48243;SDS011;34053;51.088;6.572;2022-08-19T05:31:51;5.63;;;3.63;;
48243;SDS011;34053;51.088;6.572;2022-08-19T05:34:23;4.35;;;2.53;;
48243;SDS011;34053;51.088;6.572;2022-08-19T05:36:57;6.68;;;3.17;;
48243;SDS011;34053;51.088;6.572;2022-08-19T05:39:29;2.92;;;2.72;;
48243;SDS011;34053;51.088;6.572;2022-08-19T05:42:04;2.47;;;2.28;;
48243;SDS011;34053;51.088;6.572;2022-08-19T05:44:40;3.28;;;2.15;;
48243;SDS011;34053;51.088;6.572;2022-08-19T05:47:17;1.95;;;1.83;;
48243;SDS011;34053;51.088;6.572;2022-08-19T05:49:52;2.10;;;2.00;;
48243;SDS011;34053;51.088;6.572;2022-08-19T05:52:22;3.13;;;2.85;;
48243;SDS011;34053;51.088;6.572;2022-08-19T05:54:53;4.10;;;2.20;;
48243;SDS011;34053;51.088;6.572;2022-08-19T05:57:25;3.47;;;3.03;;
48243;SDS011;34053;51.088;6.572;2022-08-19T05:59:57;3.00;;;2.40;;
48243;SDS011;34053;51.088;6.572;2022-08-19T06:02:38;2.42;;;2.22;;
48243;SDS011;34053;51.088;6.572;2022-08-19T06:05:10;2.25;;;2.05;;
48243;SDS011;34053;51.088;6.572;2022-08-19T06:07:40;2.13;;;1.30;;
48243;SDS011;34053;51.088;6.572;2022-08-19T06:10:13;11.00;;;3.22;;
48243;SDS011;34053;51.088;6.572;2022-08-19T06:12:44;2.58;;;2.28;;
48243;SDS011;34053;51.088;6.572;2022-08-19T06:15:15;5.53;;;2.95;;
48243;SDS011;34053;51.088;6.572;2022-08-19T06:17:45;2.88;;;2.67;;
48243;SDS011;34053;51.088;6.572;2022-08-19T06:20:16;7.18;;;3.10;;
48243;SDS011;34053;51.088;6.572;2022-08-19T06:22:48;6.80;;;2.72;;
48243;SDS011;34053;51.088;6.572;2022-08-19T06:25:20;5.45;;;2.50;;
48243;SDS011;34053;51.088;6.572;2022-08-19T06:27:51;5.00;;;2.83;;
48243;SDS011;34053;51.088;6.572;2022-08-19T06:30:21;3.80;;;2.03;;
48243;SDS011;34053;51.088;6.572;2022-08-19T06:32:52;3.25;;;3.03;;
48243;SDS011;34053;51.088;6.572;2022-08-19T06:35:22;14.00;;;3.75;;
48243;SDS011;34053;51.088;6.572;2022-08-19T06:37:53;3.38;;;2.55;;
48243;SDS011;34053;51.088;6.572;2022-08-19T06:40:24;2.25;;;2.05;;
48243;SDS011;34053;51.088;6.572;2022-08-19T06:42:57;5.07;;;3.33;;
48243;SDS011;34053;51.088;6.572;2022-08-19T06:45:30;2.03;;;1.92;;
48243;SDS011;34053;51.088;6.572;2022-08-19T06:48:01;5.55;;;3.13;;
48243;SDS011;34053;51.088;6.572;2022-08-19T06:50:32;7.53;;;5.20;;
48243;SDS011;34053;51.088;6.572;2022-08-19T06:53:03;4.22;;;3.67;;
48243;SDS011;34053;51.088;6.572;2022-08-19T06:55:36;7.80;;;3.80;;
48243;SDS011;34053;51.088;6.572;2022-08-19T06:58:07;3.97;;;3.58;;
48243;SDS011;34053;51.088;6.572;2022-08-19T07:00:39;5.90;;;3.80;;
48243;SDS011;34053;51.088;6.572;2022-08-19T07:03:11;3.38;;;3.08;;
48243;SDS011;34053;51.088;6.572;2022-08-19T07:05:42;7.53;;;4.30;;
48243;SDS011;34053;51.088;6.572;2022-08-19T07:08:13;5.78;;;4.75;;
48243;SDS011;34053;51.088;6.572;2022-08-19T07:10:44;2.88;;;2.70;;
48243;SDS011;34053;51.088;6.572;2022-08-19T07:13:15;5.35;;;3.38;;
48243;SDS011;34053;51.088;6.572;2022-08-19T07:15:46;4.07;;;3.75;;
48243;SDS011;34053;51.088;6.572;2022-08-19T07:18:18;6.50;;;4.10;;
48243;SDS011;34053;51.088;6.572;2022-08-19T07:20:50;3.70;;;3.42;;
48243;SDS011;34053;51.088;6.572;2022-08-19T07:23:20;9.82;;;4.88;;
48243;SDS011;34053;51.088;6.572;2022-08-19T07:25:51;4.90;;;4.40;;
48243;SDS011;34053;51.088;6.572;2022-08-19T07:28:22;6.32;;;4.35;;
48243;SDS011;34053;51.088;6.572;2022-08-19T07:30:55;5.13;;;3.90;;
48243;SDS011;34053;51.088;6.572;2022-08-19T07:33:25;8.43;;;6.18;;
48243;SDS011;34053;51.088;6.572;2022-08-19T07:35:56;5.75;;;4.20;;
48243;SDS011;34053;51.088;6.572;2022-08-19T07:38:27;3.88;;;3.58;;
48243;SDS011;34053;51.088;6.572;2022-08-19T07:40:58;5.22;;;4.72;;
48243;SDS011;34053;51.088;6.572;2022-08-19T07:43:35;7.07;;;4.95;;
48243;SDS011;34053;51.088;6.572;2022-08-19T07:46:08;5.75;;;4.43;;
48243;SDS011;34053;51.088;6.572;2022-08-19T07:51:18;5.72;;;4.88;;
48243;SDS011;34053;51.088;6.572;2022-08-19T07:53:50;5.60;;;4.60;;
48243;SDS011;34053;51.088;6.572;2022-08-19T07:56:21;5.90;;;3.78;;
48243;SDS011;34053;51.088;6.572;2022-08-19T07:58:53;10.98;;;4.57;;
48243;SDS011;34053;51.088;6.572;2022-08-19T08:01:24;4.53;;;3.72;;
48243;SDS011;34053;51.088;6.572;2022-08-19T08:03:57;5.45;;;3.85;;
48243;SDS011;34053;51.088;6.572;2022-08-19T08:06:47;5.13;;;3.28;;
48243;SDS011;34053;51.088;6.572;2022-08-19T08:09:41;4.05;;;2.35;;
48243;SDS011;34053;51.088;6.572;2022-08-19T08:14:49;5.28;;;4.72;;
48243;SDS011;34053;51.088;6.572;2022-08-19T08:17:23;6.30;;;3.05;;
48243;SDS011;34053;51.088;6.572;2022-08-19T08:19:55;2.65;;;2.45;;
48243;SDS011;34053;51.088;6.572;2022-08-19T08:22:27;3.30;;;2.42;;
48243;SDS011;34053;51.088;6.572;2022-08-19T08:25:18;4.30;;;2.85;;
48243;SDS011;34053;51.088;6.572;2022-08-19T08:27:51;6.20;;;2.40;;
48243;SDS011;34053;51.088;6.572;2022-08-19T08:30:23;3.40;;;2.20;;
48243;SDS011;34053;51.088;6.572;2022-08-19T08:32:55;3.75;;;2.10;;
48243;SDS011;34053;51.088;6.572;2022-08-19T08:35:25;3.38;;;2.97;;
48243;SDS011;34053;51.088;6.572;2022-08-19T08:37:56;2.75;;;2.38;;
48243;SDS011;34053;51.088;6.572;2022-08-19T08:40:28;3.33;;;2.35;;
48243;SDS011;34053;51.088;6.572;2022-08-19T08:45:53;3.72;;;2.72;;
48243;SDS011;34053;51.088;6.572;2022-08-19T08:51:18;3.13;;;2.63;;
48243;SDS011;34053;51.088;6.572;2022-08-19T08:53:53;2.50;;;1.77;;
48243;SDS011;34053;51.088;6.572;2022-08-19T08:56:25;3.40;;;2.37;;
48243;SDS011;34053;51.088;6.572;2022-08-19T09:01:27;3.42;;;2.15;;
48243;SDS011;34053;51.088;6.572;2022-08-19T09:03:58;4.10;;;2.38;;
48243;SDS011;34053;51.088;6.572;2022-08-19T09:09:48;3.38;;;0.95;;
48243;SDS011;34053;51.088;6.572;2022-08-19T09:12:40;1.95;;;1.85;;
48243;SDS011;34053;51.088;6.572;2022-08-19T09:15:25;2.45;;;1.98;;
48243;SDS011;34053;51.088;6.572;2022-08-19T09:18:02;0.93;;;0.93;;
48243;SDS011;34053;51.088;6.572;2022-08-19T09:23:05;3.83;;;2.65;;
48243;SDS011;34053;51.088;6.572;2022-08-19T09:25:37;3.65;;;1.52;;
48243;SDS011;34053;51.088;6.572;2022-08-19T09:30:41;2.45;;;1.35;;
48243;SDS011;34053;51.088;6.572;2022-08-19T09:33:11;2.78;;;1.70;;
48243;SDS011;34053;51.088;6.572;2022-08-19T09:35:42;2.50;;;2.30;;
48243;SDS011;34053;51.088;6.572;2022-08-19T09:38:12;2.97;;;2.75;;
48243;SDS011;34053;51.088;6.572;2022-08-19T09:40:43;6.63;;;1.60;;
48243;SDS011;34053;51.088;6.572;2022-08-19T09:43:14;4.78;;;3.15;;
48243;SDS011;34053;51.088;6.572;2022-08-19T09:45:44;3.15;;;2.25;;
48243;SDS011;34053;51.088;6.572;2022-08-19T09:48:15;2.03;;;1.75;;
48243;SDS011;34053;51.088;6.572;2022-08-19T09:50:46;1.92;;;1.73;;
48243;SDS011;34053;51.088;6.572;2022-08-19T09:53:19;1.70;;;1.60;;
48243;SDS011;34053;51.088;6.572;2022-08-19T09:55:54;1.35;;;1.25;;
48243;SDS011;34053;51.088;6.572;2022-08-19T09:58:25;1.85;;;1.65;;
48243;SDS011;34053;51.088;6.572;2022-08-19T10:00:58;1.25;;;1.15;;
48243;SDS011;34053;51.088;6.572;2022-08-19T10:03:30;3.88;;;1.95;;
48243;SDS011;34053;51.088;6.572;2022-08-19T10:06:03;1.93;;;1.47;;
48243;SDS011;34053;51.088;6.572;2022-08-19T10:08:35;2.58;;;2.25;;
48243;SDS011;34053;51.088;6.572;2022-08-19T10:11:07;1.70;;;1.60;;
48243;SDS011;34053;51.088;6.572;2022-08-19T10:13:39;5.90;;;1.95;;
48243;SDS011;34053;51.088;6.572;2022-08-19T10:16:14;3.78;;;2.60;;
48243;SDS011;34053;51.088;6.572;2022-08-19T10:18:50;1.33;;;1.23;;
48243;SDS011;34053;51.088;6.572;2022-08-19T10:21:22;3.25;;;1.17;;
48243;SDS011;34053;51.088;6.572;2022-08-19T10:23:56;2.42;;;1.90;;
48243;SDS011;34053;51.088;6.572;2022-08-19T10:26:30;0.88;;;0.88;;
48243;SDS011;34053;51.088;6.572;2022-08-19T10:29:04;2.47;;;2.00;;
48243;SDS011;34053;51.088;6.572;2022-08-19T10:31:40;2.38;;;2.17;;
48243;SDS011;34053;51.088;6.572;2022-08-19T10:34:13;1.48;;;1.38;;
48243;SDS011;34053;51.088;6.572;2022-08-19T10:36:44;1.23;;;1.13;;
48243;SDS011;34053;51.088;6.572;2022-08-19T10:39:15;2.97;;;1.45;;
48243;SDS011;34053;51.088;6.572;2022-08-19T10:41:46;3.95;;;1.75;;
48243;SDS011;34053;51.088;6.572;2022-08-19T10:44:16;2.00;;;1.80;;
48243;SDS011;34053;51.088;6.572;2022-08-19T10:46:48;1.52;;;1.42;;
48243;SDS011;34053;51.088;6.572;2022-08-19T10:49:19;1.17;;;1.00;;
48243;SDS011;34053;51.088;6.572;2022-08-19T10:51:50;23.45;;;3.10;;
48243;SDS011;34053;51.088;6.572;2022-08-19T10:54:39;10.98;;;1.55;;
48243;SDS011;34053;51.088;6.572;2022-08-19T10:57:31;1.25;;;1.15;;
48243;SDS011;34053;51.088;6.572;2022-08-19T11:00:02;2.22;;;1.77;;
48243;SDS011;34053;51.088;6.572;2022-08-19T11:02:36;3.05;;;1.48;;
48243;SDS011;34053;51.088;6.572;2022-08-19T11:05:07;1.42;;;1.33;;
48243;SDS011;34053;51.088;6.572;2022-08-19T11:07:44;2.33;;;1.63;;
48243;SDS011;34053;51.088;6.572;2022-08-19T11:10:20;0.75;;;0.75;;
48243;SDS011;34053;51.088;6.572;2022-08-19T11:12:53;1.80;;;1.65;;
48243;SDS011;34053;51.088;6.572;2022-08-19T11:15:25;2.70;;;1.88;;
48243;SDS011;34053;51.088;6.572;2022-08-19T11:17:58;1.35;;;1.13;;
48243;SDS011;34053;51.088;6.572;2022-08-19T11:20:29;1.23;;;1.02;;
48243;SDS011;34053;51.088;6.572;2022-08-19T11:23:01;1.73;;;1.63;;
48243;SDS011;34053;51.088;6.572;2022-08-19T11:25:31;1.27;;;1.20;;
48243;SDS011;34053;51.088;6.572;2022-08-19T11:28:02;2.58;;;1.52;;
48243;SDS011;34053;51.088;6.572;2022-08-19T11:30:38;1.33;;;1.10;;
48243;SDS011;34053;51.088;6.572;2022-08-19T11:33:09;2.42;;;2.22;;
48243;SDS011;34053;51.088;6.572;2022-08-19T11:35:40;1.30;;;1.20;;
48243;SDS011;34053;51.088;6.572;2022-08-19T11:38:13;0.85;;;0.85;;
48243;SDS011;34053;51.088;6.572;2022-08-19T11:40:44;1.70;;;1.45;;
48243;SDS011;34053;51.088;6.572;2022-08-19T11:43:15;1.30;;;1.13;;
48243;SDS011;34053;51.088;6.572;2022-08-19T11:45:46;3.13;;;1.75;;
48243;SDS011;34053;51.088;6.572;2022-08-19T11:48:18;0.73;;;0.73;;
48243;SDS011;34053;51.088;6.572;2022-08-19T11:50:55;2.08;;;1.50;;
48243;SDS011;34053;51.088;6.572;2022-08-19T11:53:26;1.38;;;1.25;;
48243;SDS011;34053;51.088;6.572;2022-08-19T11:55:57;3.78;;;1.38;;
48243;SDS011;34053;51.088;6.572;2022-08-19T11:58:28;6.38;;;1.35;;
48243;SDS011;34053;51.088;6.572;2022-08-19T12:00:59;0.60;;;0.60;;
48243;SDS011;34053;51.088;6.572;2022-08-19T12:03:32;0.60;;;0.60;;
48243;SDS011;34053;51.088;6.572;2022-08-19T12:06:07;3.20;;;1.48;;
48243;SDS011;34053;51.088;6.572;2022-08-19T12:08:45;0.73;;;0.73;;
48243;SDS011;34053;51.088;6.572;2022-08-19T12:11:17;1.60;;;0.95;;
48243;SDS011;34053;51.088;6.572;2022-08-19T12:13:48;1.55;;;1.45;;
48243;SDS011;34053;51.088;6.572;2022-08-19T12:16:21;0.82;;;0.82;;
48243;SDS011;34053;51.088;6.572;2022-08-19T12:18:54;1.63;;;1.52;;
48243;SDS011;34053;51.088;6.572;2022-08-19T12:23:59;1.35;;;1.25;;
48243;SDS011;34053;51.088;6.572;2022-08-19T12:26:30;3.63;;;1.67;;
48243;SDS011;34053;51.088;6.572;2022-08-19T12:29:02;1.60;;;1.45;;
48243;SDS011;34053;51.088;6.572;2022-08-19T12:31:35;1.73;;;1.35;;
48243;SDS011;34053;51.088;6.572;2022-08-19T12:34:07;0.52;;;0.52;;
48243;SDS011;34053;51.088;6.572;2022-08-19T12:36:39;0.40;;;0.40;;
48243;SDS011;34053;51.088;6.572;2022-08-19T12:39:10;2.55;;;1.33;;
48243;SDS011;34053;51.088;6.572;2022-08-19T12:41:40;0.60;;;0.60;;
48243;SDS011;34053;51.088;6.572;2022-08-19T12:44:11;1.08;;;0.68;;
48243;SDS011;34053;51.088;6.572;2022-08-19T12:46:42;0.57;;;0.57;;
48243;SDS011;34053;51.088;6.572;2022-08-19T12:49:12;4.05;;;0.70;;
48243;SDS011;34053;51.088;6.572;2022-08-19T12:51:48;1.27;;;1.17;;
48243;SDS011;34053;51.088;6.572;2022-08-19T12:54:23;0.68;;;0.68;;
48243;SDS011;34053;51.088;6.572;2022-08-19T12:56:54;0.47;;;0.47;;
48243;SDS011;34053;51.088;6.572;2022-08-19T12:59:28;1.25;;;1.15;;
48243;SDS011;34053;51.088;6.572;2022-08-19T13:02:06;0.90;;;0.90;;
48243;SDS011;34053;51.088;6.572;2022-08-19T13:04:59;0.73;;;0.73;;
48243;SDS011;34053;51.088;6.572;2022-08-19T13:07:33;1.25;;;1.00;;
48243;SDS011;34053;51.088;6.572;2022-08-19T13:10:12;1.95;;;1.15;;
48243;SDS011;34053;51.088;6.572;2022-08-19T13:12:46;0.60;;;0.60;;
48243;SDS011;34053;51.088;6.572;2022-08-19T13:15:21;1.27;;;0.98;;
48243;SDS011;34053;51.088;6.572;2022-08-19T13:17:53;0.47;;;0.47;;
48243;SDS011;34053;51.088;6.572;2022-08-19T13:20:25;0.63;;;0.63;;
48243;SDS011;34053;51.088;6.572;2022-08-19T13:22:59;2.28;;;0.50;;
48243;SDS011;34053;51.088;6.572;2022-08-19T13:25:30;0.50;;;0.50;;
48243;SDS011;34053;51.088;6.572;2022-08-19T13:28:00;0.80;;;0.80;;
48243;SDS011;34053;51.088;6.572;2022-08-19T13:30:31;4.40;;;1.42;;
48243;SDS011;34053;51.088;6.572;2022-08-19T13:33:20;4.80;;;1.35;;
48243;SDS011;34053;51.088;6.572;2022-08-19T13:35:54;0.68;;;0.68;;
48243;SDS011;34053;51.088;6.572;2022-08-19T13:38:31;1.73;;;1.63;;
48243;SDS011;34053;51.088;6.572;2022-08-19T13:41:04;1.00;;;1.00;;
48243;SDS011;34053;51.088;6.572;2022-08-19T13:43:38;0.50;;;0.50;;
48243;SDS011;34053;51.088;6.572;2022-08-19T13:46:09;0.43;;;0.43;;
48243;SDS011;34053;51.088;6.572;2022-08-19T13:48:43;2.15;;;0.75;;
48243;SDS011;34053;51.088;6.572;2022-08-19T13:51:15;0.45;;;0.45;;
48243;SDS011;34053;51.088;6.572;2022-08-19T13:53:51;0.40;;;0.40;;
48243;SDS011;34053;51.088;6.572;2022-08-19T13:56:22;0.95;;;0.80;;
48243;SDS011;34053;51.088;6.572;2022-08-19T13:58:53;0.57;;;0.57;;
48243;SDS011;34053;51.088;6.572;2022-08-19T14:01:24;0.40;;;0.40;;
48243;SDS011;34053;51.088;6.572;2022-08-19T14:03:54;0.45;;;0.45;;
48243;SDS011;34053;51.088;6.572;2022-08-19T14:06:25;1.10;;;0.77;;
48243;SDS011;34053;51.088;6.572;2022-08-19T14:08:58;0.20;;;0.20;;
48243;SDS011;34053;51.088;6.572;2022-08-19T14:11:29;0.65;;;0.50;;
48243;SDS011;34053;51.088;6.572;2022-08-19T14:14:00;0.30;;;0.30;;
48243;SDS011;34053;51.088;6.572;2022-08-19T14:16:31;0.38;;;0.38;;
48243;SDS011;34053;51.088;6.572;2022-08-19T14:19:04;0.50;;;0.50;;
48243;SDS011;34053;51.088;6.572;2022-08-19T14:21:55;0.47;;;0.47;;
48243;SDS011;34053;51.088;6.572;2022-08-19T14:24:28;0.70;;;0.65;;
48243;SDS011;34053;51.088;6.572;2022-08-19T14:26:59;0.20;;;0.20;;
48243;SDS011;34053;51.088;6.572;2022-08-19T14:29:30;0.30;;;0.30;;
48243;SDS011;34053;51.088;6.572;2022-08-19T14:32:01;0.30;;;0.30;;
48243;SDS011;34053;51.088;6.572;2022-08-19T14:34:35;2.05;;;1.27;;
48243;SDS011;34053;51.088;6.572;2022-08-19T14:37:07;0.50;;;0.50;;
48243;SDS011;34053;51.088;6.572;2022-08-19T14:39:41;0.30;;;0.30;;
48243;SDS011;34053;51.088;6.572;2022-08-19T14:42:12;0.40;;;0.40;;
48243;SDS011;34053;51.088;6.572;2022-08-19T14:44:44;0.50;;;0.50;;
48243;SDS011;34053;51.088;6.572;2022-08-19T14:47:15;0.50;;;0.50;;
48243;SDS011;34053;51.088;6.572;2022-08-19T14:49:46;0.77;;;0.52;;
48243;SDS011;34053;51.088;6.572;2022-08-19T14:52:17;0.47;;;0.47;;
48243;SDS011;34053;51.088;6.572;2022-08-19T14:54:47;0.93;;;0.88;;
48243;SDS011;34053;51.088;6.572;2022-08-19T14:57:18;0.47;;;0.47;;
48243;SDS011;34053;51.088;6.572;2022-08-19T14:59:49;0.45;;;0.45;;
48243;SDS011;34053;51.088;6.572;2022-08-19T15:02:20;0.30;;;0.30;;
48243;SDS011;34053;51.088;6.572;2022-08-19T15:04:50;1.45;;;1.27;;
48243;SDS011;34053;51.088;6.572;2022-08-19T15:07:22;0.30;;;0.30;;
48243;SDS011;34053;51.088;6.572;2022-08-19T15:09:53;0.20;;;0.20;;
48243;SDS011;34053;51.088;6.572;2022-08-19T15:12:24;0.20;;;0.20;;
48243;SDS011;34053;51.088;6.572;2022-08-19T15:14:55;2.25;;;0.90;;
48243;SDS011;34053;51.088;6.572;2022-08-19T15:17:26;0.28;;;0.28;;
48243;SDS011;34053;51.088;6.572;2022-08-19T15:19:57;0.75;;;0.40;;
48243;SDS011;34053;51.088;6.572;2022-08-19T15:22:30;1.05;;;0.60;;
48243;SDS011;34053;51.088;6.572;2022-08-19T15:25:04;0.75;;;0.75;;
48243;SDS011;34053;51.088;6.572;2022-08-19T15:27:41;0.30;;;0.30;;
48243;SDS011;34053;51.088;6.572;2022-08-19T15:30:18;0.20;;;0.20;;
48243;SDS011;34053;51.088;6.572;2022-08-19T15:32:51;0.95;;;0.80;;
48243;SDS011;34053;51.088;6.572;2022-08-19T15:35:22;0.77;;;0.35;;
48243;SDS011;34053;51.088;6.572;2022-08-19T15:37:54;0.10;;;0.10;;
48243;SDS011;34053;51.088;6.572;2022-08-19T15:40:26;0.30;;;0.30;;
48243;SDS011;34053;51.088;6.572;2022-08-19T15:43:00;0.30;;;0.30;;
48243;SDS011;34053;51.088;6.572;2022-08-19T15:45:34;0.20;;;0.20;;
48243;SDS011;34053;51.088;6.572;2022-08-19T15:48:05;0.20;;;0.20;;
48243;SDS011;34053;51.088;6.572;2022-08-19T15:50:40;11.25;;;0.85;;
48243;SDS011;34053;51.088;6.572;2022-08-19T15:53:11;1.45;;;0.82;;
48243;SDS011;34053;51.088;6.572;2022-08-19T15:55:43;0.15;;;0.15;;